sensor_id;sensor_type;location;lat;lon;timestamp;pressure;altitude;pressure_sealevel;temperature;humidity
5350;BME280;2697;42.144;24.794;2023-04-04T00:00:21;-19434.84;;;10.44;100.00
5350;BME280;2697;42.144;24.794;2023-04-04T00:02:47;-19434.84;;;10.44;100.00
5350;BME280;2697;42.144;24.794;2023-04-04T00:05:13;-19435.88;;;10.48;100.00
5350;BME280;2697;42.144;24.794;2023-04-04T00:07:38;-19435.13;;;10.45;100.00
5350;BME280;2697;42.144;24.794;2023-04-04T00:10:03;-19435.00;;;10.45;100.00
5350;BME280;2697;42.144;24.794;2023-04-04T00:12:29;-19436.34;;;10.49;100.00
5350;BME280;2697;42.144;24.794;2023-04-04T00:14:55;-19437.09;;;10.52;100.00
5350;BME280;2697;42.144;24.794;2023-04-04T00:17:21;-19436.34;;;10.49;100.00
5350;BME280;2697;42.144;24.794;2023-04-04T00:19:46;-19438.75;;;10.57;100.00
5350;BME280;2697;42.144;24.794;2023-04-04T00:22:12;-19436.63;;;10.50;100.00
5350;BME280;2697;42.144;24.794;2023-04-04T00:24:40;-19439.03;;;10.59;100.00
5350;BME280;2697;42.144;24.794;2023-04-04T00:27:06;-19439.94;;;10.62;100.00
5350;BME280;2697;42.144;24.794;2023-04-04T00:29:31;-19440.84;;;10.65;100.00
5350;BME280;2697;42.144;24.794;2023-04-04T00:31:58;-19441.59;;;10.67;100.00
5350;BME280;2697;42.144;24.794;2023-04-04T00:34:24;-19440.69;;;10.64;100.00
5350;BME280;2697;42.144;24.794;2023-04-04T00:36:50;-19438.44;;;10.56;100.00
5350;BME280;2697;42.144;24.794;2023-04-04T00:39:16;-19439.94;;;10.62;100.00
5350;BME280;2697;42.144;24.794;2023-04-04T00:41:42;-19439.94;;;10.62;100.00
5350;BME280;2697;42.144;24.794;2023-04-04T00:44:08;-19442.63;;;10.71;100.00
5350;BME280;2697;42.144;24.794;2023-04-04T00:46:33;-19441.44;;;10.67;100.00
5350;BME280;2697;42.144;24.794;2023-04-04T00:48:59;-19442.94;;;10.72;100.00
5350;BME280;2697;42.144;24.794;2023-04-04T00:51:24;-19442.94;;;10.72;100.00
5350;BME280;2697;42.144;24.794;2023-04-04T00:53:51;-19445.34;;;10.80;100.00
5350;BME280;2697;42.144;24.794;2023-04-04T00:56:17;-19443.53;;;10.74;100.00
5350;BME280;2697;42.144;24.794;2023-04-04T00:58:43;-19444.44;;;10.77;100.00
5350;BME280;2697;42.144;24.794;2023-04-04T01:01:08;-19447.75;;;10.88;100.00
5350;BME280;2697;42.144;24.794;2023-04-04T01:03:37;-19442.34;;;10.70;100.00
5350;BME280;2697;42.144;24.794;2023-04-04T01:06:07;-19444.44;;;10.77;100.00
5350;BME280;2697;42.144;24.794;2023-04-04T01:08:35;-19444.00;;;10.75;100.00
5350;BME280;2697;42.144;24.794;2023-04-04T01:11:01;-19445.78;;;10.81;100.00
5350;BME280;2697;42.144;24.794;2023-04-04T01:13:27;-19445.34;;;10.80;100.00
5350;BME280;2697;42.144;24.794;2023-04-04T01:15:53;-19445.03;;;10.79;100.00
5350;BME280;2697;42.144;24.794;2023-04-04T01:18:20;-19446.53;;;10.84;100.00
5350;BME280;2697;42.144;24.794;2023-04-04T01:21:07;-19446.09;;;10.82;100.00
5350;BME280;2697;42.144;24.794;2023-04-04T01:26:14;-19446.25;;;10.83;100.00
5350;BME280;2697;42.144;24.794;2023-04-04T01:28:40;-19447.59;;;10.88;100.00
5350;BME280;2697;42.144;24.794;2023-04-04T01:31:09;-19446.53;;;10.84;100.00
5350;BME280;2697;42.144;24.794;2023-04-04T01:33:41;-19448.50;;;10.91;100.00
5350;BME280;2697;42.144;24.794;2023-04-04T01:36:34;-19448.63;;;10.91;100.00
5350;BME280;2697;42.144;24.794;2023-04-04T01:39:11;-19448.63;;;10.91;100.00
5350;BME280;2697;42.144;24.794;2023-04-04T01:41:40;-19447.59;;;10.88;100.00
5350;BME280;2697;42.144;24.794;2023-04-04T01:44:08;-19449.25;;;10.93;100.00
5350;BME280;2697;42.144;24.794;2023-04-04T01:46:35;-19449.84;;;10.95;100.00
5350;BME280;2697;42.144;24.794;2023-04-04T01:49:01;-19450.28;;;10.97;100.00
5350;BME280;2697;42.144;24.794;2023-04-04T01:51:26;-19448.19;;;10.90;100.00
5350;BME280;2697;42.144;24.794;2023-04-04T01:53:53;-19449.09;;;10.93;100.00
5350;BME280;2697;42.144;24.794;2023-04-04T01:56:18;-19452.84;;;11.05;100.00
5350;BME280;2697;42.144;24.794;2023-04-04T01:58:44;-19450.75;;;10.98;100.00
5350;BME280;2697;42.144;24.794;2023-04-04T02:01:09;-19452.69;;;11.05;100.00
5350;BME280;2697;42.144;24.794;2023-04-04T02:03:34;-19451.94;;;11.02;100.00
5350;BME280;2697;42.144;24.794;2023-04-04T02:06:01;-19453.13;;;11.06;100.00
5350;BME280;2697;42.144;24.794;2023-04-04T02:08:26;-19452.38;;;11.04;100.00
5350;BME280;2697;42.144;24.794;2023-04-04T02:10:52;-19453.88;;;11.09;100.00
5350;BME280;2697;42.144;24.794;2023-04-04T02:13:18;-19453.88;;;11.09;100.00
5350;BME280;2697;42.144;24.794;2023-04-04T02:15:44;-19455.25;;;11.13;100.00
5350;BME280;2697;42.144;24.794;2023-04-04T02:18:09;-19455.09;;;11.13;100.00
5350;BME280;2697;42.144;24.794;2023-04-04T02:20:34;-19454.63;;;11.11;100.00
5350;BME280;2697;42.144;24.794;2023-04-04T02:23:00;-19454.78;;;11.12;100.00
5350;BME280;2697;42.144;24.794;2023-04-04T02:25:25;-19454.94;;;11.12;100.00
5350;BME280;2697;42.144;24.794;2023-04-04T02:27:50;-19452.84;;;11.05;100.00
5350;BME280;2697;42.144;24.794;2023-04-04T02:30:16;-19457.34;;;11.21;100.00
5350;BME280;2697;42.144;24.794;2023-04-04T02:32:41;-19462.59;;;11.38;100.00
5350;BME280;2697;42.144;24.794;2023-04-04T02:35:07;-19457.94;;;11.23;100.00
5350;BME280;2697;42.144;24.794;2023-04-04T02:37:33;-19459.44;;;11.28;100.00
5350;BME280;2697;42.144;24.794;2023-04-04T02:39:58;-19457.63;;;11.22;100.00
5350;BME280;2697;42.144;24.794;2023-04-04T02:42:23;-19459.13;;;11.27;100.00
5350;BME280;2697;42.144;24.794;2023-04-04T02:44:49;-19457.78;;;11.22;100.00
5350;BME280;2697;42.144;24.794;2023-04-04T02:47:14;-19457.03;;;11.20;100.00
5350;BME280;2697;42.144;24.794;2023-04-04T02:49:41;-19460.34;;;11.31;100.00
5350;BME280;2697;42.144;24.794;2023-04-04T02:52:06;-19454.63;;;11.11;100.00
5350;BME280;2697;42.144;24.794;2023-04-04T02:54:32;-19457.03;;;11.20;100.00
5350;BME280;2697;42.144;24.794;2023-04-04T02:56:57;-19450.44;;;10.97;100.00
5350;BME280;2697;42.144;24.794;2023-04-04T02:59:23;-19460.34;;;11.31;100.00
5350;BME280;2697;42.144;24.794;2023-04-04T03:01:48;-19459.00;;;11.26;100.00
5350;BME280;2697;42.144;24.794;2023-04-04T03:04:14;-19455.38;;;11.14;100.00
5350;BME280;2697;42.144;24.794;2023-04-04T03:06:39;-19457.03;;;11.20;100.00
5350;BME280;2697;42.144;24.794;2023-04-04T03:09:05;-19454.63;;;11.11;100.00
5350;BME280;2697;42.144;24.794;2023-04-04T03:11:31;-19454.94;;;11.12;100.00
5350;BME280;2697;42.144;24.794;2023-04-04T03:13:56;-19460.34;;;11.31;100.00
5350;BME280;2697;42.144;24.794;2023-04-04T03:16:22;-19461.53;;;11.35;100.00
5350;BME280;2697;42.144;24.794;2023-04-04T03:18:47;-19460.50;;;11.31;100.00
5350;BME280;2697;42.144;24.794;2023-04-04T03:21:13;-19457.34;;;11.21;100.00
5350;BME280;2697;42.144;24.794;2023-04-04T03:23:39;-19457.03;;;11.20;100.00
5350;BME280;2697;42.144;24.794;2023-04-04T03:26:04;-19457.94;;;11.23;100.00
5350;BME280;2697;42.144;24.794;2023-04-04T03:28:29;-19458.69;;;11.25;100.00
5350;BME280;2697;42.144;24.794;2023-04-04T03:30:55;-19458.53;;;11.25;100.00
5350;BME280;2697;42.144;24.794;2023-04-04T03:33:20;-19458.53;;;11.25;100.00
5350;BME280;2697;42.144;24.794;2023-04-04T03:35:47;-19456.44;;;11.18;100.00
5350;BME280;2697;42.144;24.794;2023-04-04T03:38:12;-19456.13;;;11.17;100.00
5350;BME280;2697;42.144;24.794;2023-04-04T03:40:38;-19457.50;;;11.21;100.00
5350;BME280;2697;42.144;24.794;2023-04-04T03:43:06;-19459.59;;;11.28;100.00
5350;BME280;2697;42.144;24.794;2023-04-04T03:45:33;-19460.34;;;11.31;100.00
5350;BME280;2697;42.144;24.794;2023-04-04T03:48:00;-19463.47;;;11.41;100.00
5350;BME280;2697;42.144;24.794;2023-04-04T03:50:25;-19456.59;;;11.18;100.00
5350;BME280;2697;42.144;24.794;2023-04-04T03:52:51;-19459.88;;;11.29;100.00
5350;BME280;2697;42.144;24.794;2023-04-04T03:55:16;-19459.75;;;11.29;100.00
5350;BME280;2697;42.144;24.794;2023-04-04T03:57:42;-19460.94;;;11.33;100.00
5350;BME280;2697;42.144;24.794;2023-04-04T04:00:07;-19460.63;;;11.32;100.00
5350;BME280;2697;42.144;24.794;2023-04-04T04:02:33;-19465.72;;;11.49;100.00
5350;BME280;2697;42.144;24.794;2023-04-04T04:04:58;-19463.94;;;11.43;100.00
5350;BME280;2697;42.144;24.794;2023-04-04T04:07:23;-19467.84;;;11.56;100.00
5350;BME280;2697;42.144;24.794;2023-04-04T04:09:49;-19463.03;;;11.40;100.00
5350;BME280;2697;42.144;24.794;2023-04-04T04:12:15;-19465.13;;;11.47;100.00
5350;BME280;2697;42.144;24.794;2023-04-04T04:14:40;-19466.94;;;11.53;100.00
5350;BME280;2697;42.144;24.794;2023-04-04T04:17:06;-19467.38;;;11.55;100.00
5350;BME280;2697;42.144;24.794;2023-04-04T04:19:31;-19470.53;;;11.65;100.00
5350;BME280;2697;42.144;24.794;2023-04-04T04:21:57;-19469.63;;;11.62;100.00
5350;BME280;2697;42.144;24.794;2023-04-04T04:24:22;-19465.72;;;11.49;100.00
5350;BME280;2697;42.144;24.794;2023-04-04T04:26:47;-19471.72;;;11.69;100.00
5350;BME280;2697;42.144;24.794;2023-04-04T04:29:13;-19468.72;;;11.59;100.00
5350;BME280;2697;42.144;24.794;2023-04-04T04:31:38;-19471.13;;;11.67;100.00
5350;BME280;2697;42.144;24.794;2023-04-04T04:34:05;-19468.59;;;11.59;100.00
5350;BME280;2697;42.144;24.794;2023-04-04T04:36:31;-19470.22;;;11.64;100.00
5350;BME280;2697;42.144;24.794;2023-04-04T04:38:56;-19470.22;;;11.64;100.00
5350;BME280;2697;42.144;24.794;2023-04-04T04:41:22;-19470.22;;;11.64;100.00
5350;BME280;2697;42.144;24.794;2023-04-04T04:43:47;-19470.22;;;11.64;100.00
5350;BME280;2697;42.144;24.794;2023-04-04T04:46:12;-19472.19;;;11.71;100.00
5350;BME280;2697;42.144;24.794;2023-04-04T04:48:38;-19469.03;;;11.60;100.00
5350;BME280;2697;42.144;24.794;2023-04-04T04:51:04;-19470.84;;;11.66;100.00
5350;BME280;2697;42.144;24.794;2023-04-04T04:53:30;-19470.97;;;11.67;100.00
5350;BME280;2697;42.144;24.794;2023-04-04T04:55:55;-19472.31;;;11.71;100.00
5350;BME280;2697;42.144;24.794;2023-04-04T04:58:21;-19470.69;;;11.66;100.00
5350;BME280;2697;42.144;24.794;2023-04-04T05:00:48;-19472.47;;;11.72;100.00
5350;BME280;2697;42.144;24.794;2023-04-04T05:03:13;-19473.53;;;11.76;100.00
5350;BME280;2697;42.144;24.794;2023-04-04T05:05:38;-19475.03;;;11.81;100.00
5350;BME280;2697;42.144;24.794;2023-04-04T05:08:04;-19472.03;;;11.70;100.00
5350;BME280;2697;42.144;24.794;2023-04-04T05:10:30;-19474.28;;;11.78;100.00
5350;BME280;2697;42.144;24.794;2023-04-04T05:12:56;-19475.34;;;11.82;100.00
5350;BME280;2697;42.144;24.794;2023-04-04T05:15:22;-19475.19;;;11.81;100.00
5350;BME280;2697;42.144;24.794;2023-04-04T05:17:49;-19472.94;;;11.74;100.00
5350;BME280;2697;42.144;24.794;2023-04-04T05:20:15;-19472.31;;;11.71;100.00
5350;BME280;2697;42.144;24.794;2023-04-04T05:22:43;-19472.03;;;11.70;100.00
5350;BME280;2697;42.144;24.794;2023-04-04T05:25:09;-19473.69;;;11.76;100.00
5350;BME280;2697;42.144;24.794;2023-04-04T05:27:35;-19472.94;;;11.74;100.00
5350;BME280;2697;42.144;24.794;2023-04-04T05:30:00;-19472.94;;;11.74;100.00
5350;BME280;2697;42.144;24.794;2023-04-04T05:32:26;-19473.53;;;11.76;100.00
5350;BME280;2697;42.144;24.794;2023-04-04T05:34:51;-19474.72;;;11.80;100.00
5350;BME280;2697;42.144;24.794;2023-04-04T05:37:16;-19474.56;;;11.79;100.00
5350;BME280;2697;42.144;24.794;2023-04-04T05:39:42;-19478.03;;;11.91;100.00
5350;BME280;2697;42.144;24.794;2023-04-04T05:42:07;-19471.88;;;11.70;100.00
5350;BME280;2697;42.144;24.794;2023-04-04T05:44:33;-19475.94;;;11.84;100.00
5350;BME280;2697;42.144;24.794;2023-04-04T05:46:58;-19481.78;;;12.04;100.00
5350;BME280;2697;42.144;24.794;2023-04-04T05:49:23;-19485.69;;;12.17;100.00
5350;BME280;2697;42.144;24.794;2023-04-04T05:51:49;-19482.22;;;12.05;100.00
5350;BME280;2697;42.144;24.794;2023-04-04T05:54:14;-19482.69;;;12.07;100.00
5350;BME280;2697;42.144;24.794;2023-04-04T05:56:39;-19481.03;;;12.01;100.00
5350;BME280;2697;42.144;24.794;2023-04-04T05:59:05;-19476.84;;;11.87;100.00
5350;BME280;2697;42.144;24.794;2023-04-04T06:01:30;-19478.47;;;11.92;100.00
5350;BME280;2697;42.144;24.794;2023-04-04T06:03:56;-19478.94;;;11.94;100.00
5350;BME280;2697;42.144;24.794;2023-04-04T06:06:21;-19484.34;;;12.12;100.00
5350;BME280;2697;42.144;24.794;2023-04-04T06:08:47;-19480.44;;;11.99;100.00
5350;BME280;2697;42.144;24.794;2023-04-04T06:11:12;-19484.78;;;12.14;100.00
5350;BME280;2697;42.144;24.794;2023-04-04T06:13:38;-19482.81;;;12.07;100.00
5350;BME280;2697;42.144;24.794;2023-04-04T06:16:04;-19483.56;;;12.10;100.00
5350;BME280;2697;42.144;24.794;2023-04-04T06:18:30;-19481.63;;;12.03;100.00
5350;BME280;2697;42.144;24.794;2023-04-04T06:20:55;-19487.63;;;12.23;100.00
5350;BME280;2697;42.144;24.794;2023-04-04T06:23:20;-19483.72;;;12.10;100.00
5350;BME280;2697;42.144;24.794;2023-04-04T06:25:46;-19483.28;;;12.09;100.00
5350;BME280;2697;42.144;24.794;2023-04-04T06:28:12;-19490.03;;;12.32;100.00
5350;BME280;2697;42.144;24.794;2023-04-04T06:30:40;-19492.28;;;12.39;100.00
5350;BME280;2697;42.144;24.794;2023-04-04T06:33:05;-19486.56;;;12.20;100.00
5350;BME280;2697;42.144;24.794;2023-04-04T06:35:31;-19496.00;;;12.52;100.00
5350;BME280;2697;42.144;24.794;2023-04-04T06:37:57;-19496.31;;;12.53;100.00
5350;BME280;2697;42.144;24.794;2023-04-04T06:40:23;-19498.72;;;12.61;100.00
5350;BME280;2697;42.144;24.794;2023-04-04T06:42:49;-19496.00;;;12.52;100.00
5350;BME280;2697;42.144;24.794;2023-04-04T06:45:16;-19495.88;;;12.51;100.00
5350;BME280;2697;42.144;24.794;2023-04-04T06:47:42;-19493.03;;;12.42;100.00
5350;BME280;2697;42.144;24.794;2023-04-04T06:50:08;-19490.47;;;12.33;100.00
5350;BME280;2697;42.144;24.794;2023-04-04T06:52:33;-19489.44;;;12.30;100.00
5350;BME280;2697;42.144;24.794;2023-04-04T06:54:59;-19495.13;;;12.49;100.00
5350;BME280;2697;42.144;24.794;2023-04-04T06:57:24;-19489.56;;;12.30;100.00
5350;BME280;2697;42.144;24.794;2023-04-04T06:59:49;-19496.16;;;12.52;100.00
5350;BME280;2697;42.144;24.794;2023-04-04T07:02:15;-19491.06;;;12.35;100.00
5350;BME280;2697;42.144;24.794;2023-04-04T07:04:40;-19497.22;;;12.56;100.00
5350;BME280;2697;42.144;24.794;2023-04-04T07:07:07;-19495.56;;;12.50;100.00
5350;BME280;2697;42.144;24.794;2023-04-04T07:09:32;-19495.41;;;12.50;100.00
5350;BME280;2697;42.144;24.794;2023-04-04T07:11:57;-19502.59;;;12.74;100.00
5350;BME280;2697;42.144;24.794;2023-04-04T07:14:23;-19510.41;;;13.01;100.00
5350;BME280;2697;42.144;24.794;2023-04-04T07:16:50;-19511.31;;;13.04;100.00
5350;BME280;2697;42.144;24.794;2023-04-04T07:19:15;-19501.72;;;12.71;100.00
5350;BME280;2697;42.144;24.794;2023-04-04T07:21:41;-19504.41;;;12.80;100.00
5350;BME280;2697;42.144;24.794;2023-04-04T07:24:07;-19509.06;;;12.96;100.00
5350;BME280;2697;42.144;24.794;2023-04-04T07:26:32;-19505.00;;;12.82;100.00
5350;BME280;2697;42.144;24.794;2023-04-04T07:28:59;-19502.16;;;12.73;100.00
5350;BME280;2697;42.144;24.794;2023-04-04T07:31:24;-19501.25;;;12.70;100.00
5350;BME280;2697;42.144;24.794;2023-04-04T07:33:51;-19501.72;;;12.71;100.00
5350;BME280;2697;42.144;24.794;2023-04-04T07:36:18;-19504.09;;;12.79;100.00
5350;BME280;2697;42.144;24.794;2023-04-04T07:38:43;-19507.09;;;12.90;100.00
5350;BME280;2697;42.144;24.794;2023-04-04T07:41:09;-19499.59;;;12.64;100.00
5350;BME280;2697;42.144;24.794;2023-04-04T07:43:36;-19502.47;;;12.74;100.00
5350;BME280;2697;42.144;24.794;2023-04-04T07:46:01;-19502.31;;;12.73;100.00
5350;BME280;2697;42.144;24.794;2023-04-04T07:48:27;-19504.09;;;12.79;100.00
5350;BME280;2697;42.144;24.794;2023-04-04T07:50:52;-19506.94;;;12.89;100.00
5350;BME280;2697;42.144;24.794;2023-04-04T07:53:17;-19513.25;;;13.10;100.00
5350;BME280;2697;42.144;24.794;2023-04-04T07:55:43;-19509.06;;;12.96;100.00
5350;BME280;2697;42.144;24.794;2023-04-04T07:58:08;-19520.00;;;13.33;100.00
5350;BME280;2697;42.144;24.794;2023-04-04T08:00:34;-19518.63;;;13.29;100.00
5350;BME280;2697;42.144;24.794;2023-04-04T08:02:59;-19526.41;;;13.62;100.00
5350;BME280;2697;42.144;24.794;2023-04-04T08:05:26;-19526.41;;;13.62;100.00
5350;BME280;2697;42.144;24.794;2023-04-04T08:07:52;-17511.38;;;13.55;100.00
5350;BME280;2697;42.144;24.794;2023-04-04T08:10:17;-15499.25;;;13.63;100.00
5350;BME280;2697;42.144;24.794;2023-04-04T08:12:43;-16164.19;;;13.35;100.00
5350;BME280;2697;42.144;24.794;2023-04-04T08:15:09;-14490.00;;;13.55;100.00
5350;BME280;2697;42.144;24.794;2023-04-04T08:17:35;-13478.81;;;13.37;100.00
5350;BME280;2697;42.144;24.794;2023-04-04T08:20:01;-12473.19;;;13.48;100.00
5350;BME280;2697;42.144;24.794;2023-04-04T08:22:28;-12807.00;;;13.36;100.00
5350;BME280;2697;42.144;24.794;2023-04-04T08:24:53;-11464.53;;;13.45;100.00
5350;BME280;2697;42.144;24.794;2023-04-04T08:27:19;-9787.03;;;13.67;100.00
5350;BME280;2697;42.144;24.794;2023-04-04T08:29:45;-9110.91;;;13.40;100.00
5350;BME280;2697;42.144;24.794;2023-04-04T08:32:12;-10457.22;;;13.51;100.00
5350;BME280;2697;42.144;24.794;2023-04-04T08:34:39;-9109.88;;;13.32;100.00
5350;BME280;2697;42.144;24.794;2023-04-04T08:37:04;-10122.13;;;13.59;100.00
5350;BME280;2697;42.144;24.794;2023-04-04T08:39:30;-5077.56;;;14.00;100.00
5350;BME280;2697;42.144;24.794;2023-04-04T08:42:03;-2044.13;;;13.97;100.00
5350;BME280;2697;42.144;24.794;2023-04-04T08:44:30;3693.53;;;14.17;100.00
5350;BME280;2697;42.144;24.794;2023-04-04T08:46:58;1665.84;;;13.84;100.00
5350;BME280;2697;42.144;24.794;2023-04-04T08:49:26;-2044.09;;;13.94;100.00
5350;BME280;2697;42.144;24.794;2023-04-04T08:51:55;5723.09;;;14.38;100.00
5350;BME280;2697;42.144;24.794;2023-04-04T08:54:21;11814.69;;;14.45;100.00
5350;BME280;2697;42.144;24.794;2023-04-04T08:56:48;14523.97;;;14.42;100.00
5350;BME280;2697;42.144;24.794;2023-04-04T08:59:13;12498.41;;;14.74;100.00
5350;BME280;2697;42.144;24.794;2023-04-04T09:01:43;19618.84;;;14.68;100.00
5350;BME280;2697;42.144;24.794;2023-04-04T09:04:09;19289.94;;;14.99;100.00
5350;BME280;2697;42.144;24.794;2023-04-04T09:06:36;34934.56;;;14.86;100.00
5350;BME280;2697;42.144;24.794;2023-04-04T09:09:02;23349.63;;;14.56;100.00
5350;BME280;2697;42.144;24.794;2023-04-04T09:11:30;25723.81;;;14.45;100.00
5350;BME280;2697;42.144;24.794;2023-04-04T09:13:56;14519.56;;;14.25;100.00
5350;BME280;2697;42.144;24.794;2023-04-04T09:16:22;17229.41;;;14.21;100.00
5350;BME280;2697;42.144;24.794;2023-04-04T09:18:48;7747.47;;;14.07;100.00
5350;BME280;2697;42.144;24.794;2023-04-04T09:21:13;8423.44;;;14.05;100.00
5350;BME280;2697;42.144;24.794;2023-04-04T09:23:39;3354.94;;;14.06;100.00
5350;BME280;2697;42.144;24.794;2023-04-04T09:26:04;9444.22;;;14.41;100.00
5350;BME280;2697;42.144;24.794;2023-04-04T09:28:31;16564.59;;;14.66;100.00
5350;BME280;2697;42.144;24.794;2023-04-04T09:31:00;11479.53;;;14.62;100.00
5350;BME280;2697;42.144;24.794;2023-04-04T09:33:27;27116.75;;;15.18;100.00
5350;BME280;2697;42.144;24.794;2023-04-04T09:36:02;32534.63;;;14.60;100.00
5350;BME280;2697;42.144;24.794;2023-04-04T09:38:28;25404.25;;;14.92;100.00
5350;BME280;2697;42.144;24.794;2023-04-04T09:40:55;39372.53;;;14.92;100.00
5350;BME280;2697;42.144;24.794;2023-04-04T09:43:22;43804.44;;;14.82;100.00
5350;BME280;2697;42.144;24.794;2023-04-04T09:45:48;40764.34;;;15.31;100.00
5350;BME280;2697;42.144;24.794;2023-04-04T09:48:25;50998.06;;;14.97;100.00
5350;BME280;2697;42.144;24.794;2023-04-04T09:50:51;31870.63;;;14.91;100.00
5350;BME280;2697;42.144;24.794;2023-04-04T09:53:16;50678.09;;;15.24;100.00
5350;BME280;2697;42.144;24.794;2023-04-04T09:55:51;54789.66;;;15.24;100.00
5350;BME280;2697;42.144;24.794;2023-04-04T09:58:26;68568.53;;;15.61;100.00
5350;BME280;2697;42.144;24.794;2023-04-04T10:00:54;71656.69;;;15.52;100.00
5350;BME280;2697;42.144;24.794;2023-04-04T10:03:22;80618.28;;;15.50;100.00
5350;BME280;2697;42.144;24.794;2023-04-04T10:06:02;82341.78;;;15.48;100.00
5350;BME280;2697;42.144;24.794;2023-04-04T10:08:28;103132.41;;;15.58;100.00
5350;BME280;2697;42.144;24.794;2023-04-04T10:10:59;94102.06;;;15.49;100.00
5350;BME280;2697;42.144;24.794;2023-04-04T10:13:26;80557.81;;;15.04;100.00
5350;BME280;2697;42.144;24.794;2023-04-04T10:15:54;65439.22;;;15.31;100.00
5350;BME280;2697;42.144;24.794;2023-04-04T10:18:24;90978.56;;;15.44;100.00
5350;BME280;2697;42.144;24.794;2023-04-04T10:20:52;59577.25;;;15.09;100.00
5350;BME280;2697;42.144;24.794;2023-04-04T10:23:18;67905.41;;;15.84;100.00
5350;BME280;2697;42.144;24.794;2023-04-04T10:25:45;114443.53;;;16.57;100.00
5350;BME280;2697;42.144;24.794;2023-04-04T10:28:11;156840.94;;;16.54;100.00
5350;BME280;2697;42.144;24.794;2023-04-04T10:30:41;109792.03;;;15.90;100.00
5350;BME280;2697;42.144;24.794;2023-04-04T10:33:09;104941.03;;;16.00;100.00
5350;BME280;2697;42.144;24.794;2023-04-04T10:35:43;144516.88;;;16.47;100.00
5350;BME280;2697;42.144;24.794;2023-04-04T10:38:10;157030.22;;;17.27;100.00
5350;BME280;2697;42.144;24.794;2023-04-04T10:40:36;157142.81;;;17.70;100.00
5350;BME280;2697;42.144;24.794;2023-04-04T10:43:06;157413.03;;;18.74;100.00
5350;BME280;2697;42.144;24.794;2023-04-04T10:45:31;157436.88;;;18.83;100.00
5350;BME280;2697;42.144;24.794;2023-04-04T10:47:58;157436.88;;;18.83;100.00
5350;BME280;2697;42.144;24.794;2023-04-04T10:50:25;157515.06;;;19.13;100.00
5350;BME280;2697;42.144;24.794;2023-04-04T10:52:51;157527.00;;;19.18;100.00
5350;BME280;2697;42.144;24.794;2023-04-04T10:55:17;157407.75;;;18.72;100.00
5350;BME280;2697;42.144;24.794;2023-04-04T10:57:47;157222.25;;;18.01;100.00
5350;BME280;2697;42.144;24.794;2023-04-04T11:00:17;157569.38;;;19.34;100.00
5350;BME280;2697;42.144;24.794;2023-04-04T11:02:58;157497.81;;;19.06;98.29
5350;BME280;2697;42.144;24.794;2023-04-04T11:08:03;157452.81;;;18.89;98.08
5350;BME280;2697;42.144;24.794;2023-04-04T11:10:31;157383.84;;;18.63;100.00
5350;BME280;2697;42.144;24.794;2023-04-04T11:12:59;157146.75;;;17.72;100.00
5350;BME280;2697;42.144;24.794;2023-04-04T11:18:20;157203.69;;;17.93;100.00
5350;BME280;2697;42.144;24.794;2023-04-04T11:20:47;157185.13;;;17.86;100.00
5350;BME280;2697;42.144;24.794;2023-04-04T11:23:15;157121.56;;;17.62;100.00
5350;BME280;2697;42.144;24.794;2023-04-04T11:25:57;157073.91;;;17.44;100.00
5350;BME280;2697;42.144;24.794;2023-04-04T11:39:06;156863.44;;;16.63;100.00
5350;BME280;2697;42.144;24.794;2023-04-04T11:44:20;157158.66;;;17.76;100.00
5350;BME280;2697;42.144;24.794;2023-04-04T11:46:46;157097.75;;;17.53;100.00
5350;BME280;2697;42.144;24.794;2023-04-04T11:49:13;156952.16;;;16.97;100.00
5350;BME280;2697;42.144;24.794;2023-04-04T11:51:39;157164.00;;;17.78;100.00
5350;BME280;2697;42.144;24.794;2023-04-04T11:54:12;157304.31;;;18.32;94.87
5350;BME280;2697;42.144;24.794;2023-04-04T11:56:41;157224.88;;;18.02;99.94
5350;BME280;2697;42.144;24.794;2023-04-04T11:59:06;157360.00;;;18.54;92.71
5350;BME280;2697;42.144;24.794;2023-04-04T12:01:32;157354.66;;;18.51;90.31
5350;BME280;2697;42.144;24.794;2023-04-04T12:03:58;157214.31;;;17.98;96.27
5350;BME280;2697;42.144;24.794;2023-04-04T12:06:24;157215.63;;;17.98;96.73
5350;BME280;2697;42.144;24.794;2023-04-04T12:08:51;157182.50;;;17.85;96.23
5350;BME280;2697;42.144;24.794;2023-04-04T12:11:17;157295.06;;;18.29;94.32
5350;BME280;2697;42.144;24.794;2023-04-04T12:13:44;157324.22;;;18.40;91.20
5350;BME280;2697;42.144;24.794;2023-04-04T12:16:10;157005.06;;;17.17;96.13
5350;BME280;2697;42.144;24.794;2023-04-04T12:18:36;157075.22;;;17.44;99.78
5350;BME280;2697;42.144;24.794;2023-04-04T12:21:01;156944.22;;;16.94;100.00
5350;BME280;2697;42.144;24.794;2023-04-04T12:23:34;156936.25;;;16.91;100.00
5350;BME280;2697;42.144;24.794;2023-04-04T12:26:00;156859.47;;;16.61;100.00
5350;BME280;2697;42.144;24.794;2023-04-04T12:28:29;156803.94;;;16.40;100.00
5350;BME280;2697;42.144;24.794;2023-04-04T12:30:57;156724.56;;;16.09;100.00
5350;BME280;2697;42.144;24.794;2023-04-04T12:33:29;156522.25;;;15.31;100.00
5350;BME280;2697;42.144;24.794;2023-04-04T12:35:58;156479.97;;;15.15;100.00
5350;BME280;2697;42.144;24.794;2023-04-04T12:38:24;114073.84;;;14.62;100.00
5350;BME280;2697;42.144;24.794;2023-04-04T12:40:51;42383.59;;;14.05;100.00
5350;BME280;2697;42.144;24.794;2023-04-04T12:43:17;27061.00;;;13.96;100.00
5350;BME280;2697;42.144;24.794;2023-04-04T12:45:43;5715.94;;;13.75;100.00
5350;BME280;2697;42.144;24.794;2023-04-04T12:48:13;-358.41;;;13.66;100.00
5350;BME280;2697;42.144;24.794;2023-04-04T12:50:49;-4402.16;;;13.69;100.00
5350;BME280;2697;42.144;24.794;2023-04-04T12:53:15;-10459.47;;;13.66;100.00
5350;BME280;2697;42.144;24.794;2023-04-04T12:55:45;-13815.47;;;13.41;100.00
5350;BME280;2697;42.144;24.794;2023-04-04T12:58:13;-12132.03;;;13.19;100.00
5350;BME280;2697;42.144;24.794;2023-04-04T13:00:39;-12131.22;;;13.14;100.00
5350;BME280;2697;42.144;24.794;2023-04-04T13:03:06;-12466.31;;;13.10;100.00
5350;BME280;2697;42.144;24.794;2023-04-04T13:05:33;-14817.47;;;13.17;100.00
5350;BME280;2697;42.144;24.794;2023-04-04T13:08:07;-14818.69;;;13.22;100.00
5350;BME280;2697;42.144;24.794;2023-04-04T13:11:02;-18843.66;;;13.20;100.00